createdAt,value
2022-10-07T00:02:15.172Z,96.07
2022-10-07T00:04:46.495Z,96.12
2022-10-07T00:07:16.694Z,96.11
2022-10-07T00:09:46.418Z,96.17
2022-10-07T00:12:16.147Z,96.23
2022-10-07T00:14:48.550Z,96.28
2022-10-07T00:17:18.315Z,96.34
2022-10-07T00:19:48.079Z,96.38
2022-10-07T00:22:17.838Z,96.54
2022-10-07T00:24:48.647Z,96.57
2022-10-07T00:27:18.611Z,96.58
2022-10-07T00:29:51.003Z,96.51
2022-10-07T00:32:20.751Z,96.69
2022-10-07T00:34:50.499Z,96.71
2022-10-07T00:37:20.243Z,96.88
2022-10-07T00:39:49.956Z,96.81
2022-10-07T00:42:19.653Z,96.97
2022-10-07T00:44:52.005Z,97.01
2022-10-07T00:47:27.672Z,97.13
2022-10-07T00:50:01.156Z,97.13
2022-10-07T00:52:34.502Z,97.21
2022-10-07T00:55:08.848Z,97.34
2022-10-07T00:57:40.459Z,97.35
2022-10-07T01:00:14.572Z,97.41
2022-10-07T01:02:45.322Z,97.57
2022-10-07T01:05:17.966Z,97.62
2022-10-07T01:07:49.705Z,97.71
2022-10-07T01:10:23.203Z,97.79
2022-10-07T01:13:00.355Z,97.76
2022-10-07T01:15:40.426Z,97.83
2022-10-07T01:18:19.828Z,97.89
2022-10-07T01:20:56.348Z,97.89
2022-10-07T01:23:44.771Z,98.11
2022-10-07T01:26:58.912Z,98.02
2022-10-07T01:29:36.216Z,98.11
2022-10-07T01:32:13.163Z,98.14
2022-10-07T01:34:46.686Z,98.33
2022-10-07T01:37:19.869Z,98.24
2022-10-07T01:39:53.840Z,98.22
2022-10-07T01:42:26.369Z,98.29
2022-10-07T01:45:01.909Z,98.46
2022-10-07T01:47:31.902Z,98.41
2022-10-07T01:50:01.684Z,98.42
2022-10-07T01:52:46.553Z,98.50
2022-10-07T01:55:46.469Z,98.64
2022-10-07T01:58:30.189Z,98.61
2022-10-07T02:01:10.447Z,98.63
2022-10-07T02:03:57.388Z,98.62
2022-10-07T02:06:39.493Z,98.74
2022-10-07T02:09:21.762Z,98.84
2022-10-07T02:11:58.494Z,98.86
2022-10-07T02:14:37.022Z,98.82
2022-10-07T02:17:16.697Z,98.84
2022-10-07T02:19:50.364Z,98.92
2022-10-07T02:22:23.644Z,98.91
2022-10-07T02:24:59.253Z,98.97
2022-10-07T02:27:35.022Z,99.10
2022-10-07T02:30:08.488Z,99.05
2022-10-07T02:32:44.538Z,99.02
2022-10-07T02:35:21.694Z,99.17
2022-10-07T02:37:54.553Z,99.15
2022-10-07T02:40:27.143Z,99.24
2022-10-07T02:43:01.916Z,99.21
2022-10-07T02:45:39.355Z,99.27
2022-10-07T02:48:18.338Z,99.29
2022-10-07T02:50:52.811Z,99.30
2022-10-07T02:53:24.291Z,99.34
2022-10-07T02:55:56.367Z,99.41
2022-10-07T02:58:28.444Z,99.36
2022-10-07T03:01:03.176Z,99.51
2022-10-07T03:03:35.688Z,99.61
2022-10-07T03:06:06.322Z,99.73
2022-10-07T03:08:36.173Z,99.69
2022-10-07T03:11:05.911Z,99.79
2022-10-07T03:13:35.644Z,99.75
2022-10-07T03:16:06.315Z,99.92
2022-10-07T03:18:39.172Z,100.00
2022-10-07T03:21:09.084Z,99.96
2022-10-07T03:23:38.796Z,100.00
2022-10-07T03:26:08.824Z,100.00
2022-10-07T03:28:38.946Z,100.00
2022-10-07T03:31:10.263Z,100.00
2022-10-07T03:33:42.917Z,100.00
2022-10-07T03:36:13.496Z,100.00
2022-10-07T03:38:43.240Z,100.00
2022-10-07T03:41:12.954Z,100.00
2022-10-07T03:43:42.670Z,100.00
2022-10-07T03:46:12.544Z,100.00
2022-10-07T03:48:44.911Z,100.00
2022-10-07T03:51:14.634Z,100.00
2022-10-07T03:53:44.366Z,100.00
2022-10-07T03:56:14.078Z,100.00
2022-10-07T03:58:43.797Z,100.00
2022-10-07T04:01:15.289Z,100.00
2022-10-07T04:03:47.801Z,100.00
2022-10-07T04:06:17.941Z,100.00
2022-10-07T04:08:47.631Z,100.00
2022-10-07T04:11:18.535Z,100.00
2022-10-07T04:13:48.313Z,100.00
2022-10-07T04:16:18.088Z,100.00
2022-10-07T04:18:50.660Z,100.00
2022-10-07T04:21:20.386Z,100.00
2022-10-07T04:23:50.119Z,100.00
2022-10-07T04:26:19.860Z,100.00
2022-10-07T04:28:49.631Z,100.00
2022-10-07T04:31:19.443Z,100.00
2022-10-07T04:33:51.860Z,100.00
2022-10-07T04:36:21.570Z,100.00
2022-10-07T04:38:52.621Z,100.00
2022-10-07T04:41:22.341Z,100.00
2022-10-07T04:43:57.619Z,100.00
2022-10-07T04:46:28.688Z,100.00
2022-10-07T04:49:01.704Z,100.00
2022-10-07T04:51:31.913Z,100.00
2022-10-07T04:54:01.677Z,100.00
2022-10-07T04:56:31.521Z,100.00
2022-10-07T04:59:01.401Z,100.00
2022-10-07T05:01:31.208Z,100.00
2022-10-07T05:04:03.958Z,100.00
2022-10-07T05:06:33.704Z,100.00
2022-10-07T05:09:03.442Z,100.00
2022-10-07T05:11:33.159Z,100.00
2022-10-07T05:14:03.497Z,100.00
2022-10-07T05:16:33.527Z,100.00
2022-10-07T05:19:05.903Z,100.00
2022-10-07T05:21:36.053Z,100.00
2022-10-07T05:24:05.775Z,100.00
2022-10-07T05:26:35.532Z,100.00
2022-10-07T05:29:07.077Z,100.00
2022-10-07T05:31:37.182Z,100.00
2022-10-07T05:34:09.861Z,100.00
2022-10-07T05:36:39.601Z,100.00
2022-10-07T05:39:09.555Z,100.00
2022-10-07T05:41:45.317Z,100.00
2022-10-07T05:44:15.724Z,100.00
2022-10-07T05:46:45.592Z,100.00
2022-10-07T05:49:18.157Z,100.00
2022-10-07T05:51:47.907Z,100.00
2022-10-07T05:54:18.440Z,100.00
2022-10-07T05:56:48.229Z,100.00
2022-10-07T05:59:17.976Z,100.00
2022-10-07T06:01:47.812Z,100.00
2022-10-07T06:04:20.244Z,100.00
2022-10-07T06:06:49.998Z,100.00
2022-10-07T06:09:32.143Z,100.00
2022-10-07T06:12:14.378Z,100.00
2022-10-07T06:14:45.007Z,100.00
2022-10-07T06:17:15.125Z,100.00
2022-10-07T06:19:47.506Z,100.00
2022-10-07T06:22:17.351Z,100.00
2022-10-07T06:24:47.103Z,100.00
2022-10-07T06:27:17.007Z,100.00
2022-10-07T06:29:46.748Z,100.00
2022-10-07T06:32:16.519Z,100.00
2022-10-07T06:34:48.895Z,100.00
2022-10-07T06:37:19.675Z,100.00
2022-10-07T06:39:49.659Z,100.00
2022-10-07T06:42:19.563Z,100.00
2022-10-07T06:44:49.366Z,100.00
2022-10-07T06:47:19.137Z,100.00
2022-10-07T06:49:51.753Z,100.00
2022-10-07T06:52:21.467Z,100.00
2022-10-07T06:54:51.189Z,100.00
2022-10-07T06:57:44.233Z,100.00
2022-10-07T07:00:14.319Z,100.00
2022-10-07T07:02:44.681Z,100.00
2022-10-07T07:05:19.362Z,100.00
2022-10-07T07:07:49.622Z,100.00
2022-10-07T07:10:19.897Z,100.00
2022-10-07T07:12:50.744Z,100.00
2022-10-07T07:15:20.750Z,100.00
2022-10-07T07:17:51.642Z,100.00
2022-10-07T07:20:23.972Z,100.00
2022-10-07T07:22:53.901Z,100.00
2022-10-07T07:25:23.657Z,100.00
2022-10-07T07:27:57.776Z,100.00
2022-10-07T07:30:28.010Z,100.00
2022-10-07T07:32:58.284Z,100.00
2022-10-07T07:35:33.740Z,100.00
2022-10-07T07:38:03.657Z,100.00
2022-10-07T07:40:33.422Z,100.00
2022-10-07T07:43:03.598Z,100.00
2022-10-07T07:45:33.405Z,100.00
2022-10-07T07:48:03.350Z,100.00
2022-10-07T07:50:35.955Z,100.00
2022-10-07T07:53:05.918Z,100.00
2022-10-07T07:55:35.690Z,100.00
2022-10-07T07:58:09.668Z,100.00
2022-10-07T08:00:42.385Z,100.00
2022-10-07T08:03:12.134Z,100.00
2022-10-07T08:05:44.475Z,100.00
2022-10-07T08:08:15.021Z,100.00
2022-10-07T08:10:48.369Z,100.00
2022-10-07T08:13:20.953Z,100.00
2022-10-07T08:15:50.868Z,100.00
2022-10-07T08:18:21.687Z,100.00
2022-10-07T08:21:02.294Z,100.00
2022-10-07T08:23:32.682Z,100.00
2022-10-07T08:26:03.832Z,100.00
2022-10-07T08:28:34.349Z,100.00
2022-10-07T08:31:08.705Z,100.00
2022-10-07T08:33:40.826Z,100.00
2022-10-07T08:36:16.037Z,100.00
2022-10-07T08:38:48.844Z,100.00
2022-10-07T08:41:28.511Z,100.00
2022-10-07T08:44:00.999Z,100.00
2022-10-07T08:46:36.412Z,100.00
2022-10-07T08:49:08.760Z,100.00
2022-10-07T08:51:48.499Z,100.00
2022-10-07T08:54:19.980Z,100.00
2022-10-07T08:56:51.997Z,100.00
2022-10-07T08:59:25.647Z,100.00
2022-10-07T09:02:07.263Z,100.00
2022-10-07T09:04:54.969Z,100.00
2022-10-07T09:07:35.072Z,100.00
2022-10-07T09:10:17.985Z,100.00
2022-10-07T09:12:52.003Z,100.00
2022-10-07T09:15:27.452Z,100.00
2022-10-07T09:18:02.189Z,100.00
2022-10-07T09:20:37.655Z,100.00
2022-10-07T09:23:15.589Z,100.00
2022-10-07T09:25:46.608Z,100.00
2022-10-07T09:28:19.342Z,100.00
2022-10-07T09:30:49.180Z,100.00
2022-10-07T09:33:23.308Z,100.00
2022-10-07T09:35:57.727Z,100.00
2022-10-07T09:38:39.465Z,100.00
2022-10-07T09:41:19.782Z,100.00
2022-10-07T09:44:04.634Z,100.00
2022-10-07T09:46:44.080Z,100.00
2022-10-07T09:49:34.286Z,100.00
2022-10-07T09:52:05.423Z,100.00
2022-10-07T09:54:39.265Z,100.00
2022-10-07T09:57:23.509Z,100.00
2022-10-07T09:59:54.969Z,100.00
2022-10-07T10:02:28.593Z,100.00
2022-10-07T10:05:00.198Z,100.00
2022-10-07T10:07:31.934Z,100.00
2022-10-07T10:10:07.860Z,100.00
2022-10-07T10:12:48.009Z,100.00
2022-10-07T10:15:28.321Z,100.00
2022-10-07T10:17:59.830Z,100.00
2022-10-07T10:20:36.101Z,100.00
2022-10-07T10:23:24.343Z,100.00
2022-10-07T10:26:23.414Z,100.00
2022-10-07T10:29:02.541Z,100.00
2022-10-07T10:31:41.725Z,100.00
2022-10-07T10:34:25.122Z,100.00
2022-10-07T10:37:03.507Z,100.00
2022-10-07T10:39:43.738Z,100.00
2022-10-07T10:42:21.464Z,100.00
2022-10-07T10:45:08.109Z,100.00
2022-10-07T10:47:51.685Z,100.00
2022-10-07T10:50:30.550Z,100.00
2022-10-07T10:53:09.468Z,100.00
2022-10-07T10:55:57.559Z,100.00
2022-10-07T10:58:45.502Z,100.00
2022-10-07T11:01:26.925Z,100.00
2022-10-07T11:04:22.463Z,100.00
2022-10-07T11:06:56.181Z,100.00
2022-10-07T11:09:33.681Z,100.00
2022-10-07T11:12:07.787Z,100.00
2022-10-07T11:14:48.422Z,100.00
2022-10-07T11:17:19.798Z,100.00
2022-10-07T11:20:00.417Z,100.00
2022-10-07T11:22:38.663Z,100.00
2022-10-07T11:25:20.463Z,100.00
2022-10-07T11:27:54.358Z,100.00
2022-10-07T11:30:27.681Z,100.00
2022-10-07T11:33:02.019Z,100.00
2022-10-07T11:35:35.145Z,100.00
2022-10-07T11:38:16.776Z,100.00
2022-10-07T11:40:49.891Z,100.00
2022-10-07T11:43:29.893Z,100.00
2022-10-07T11:46:11.303Z,100.00
2022-10-07T11:48:49.289Z,100.00
2022-10-07T11:51:26.033Z,100.00
2022-10-07T11:53:58.651Z,100.00
2022-10-07T11:56:31.109Z,100.00
2022-10-07T11:59:03.509Z,100.00
2022-10-07T12:01:43.802Z,100.00
2022-10-07T12:04:42.929Z,100.00
2022-10-07T12:07:41.642Z,100.00
2022-10-07T12:10:25.158Z,100.00
2022-10-07T12:13:01.378Z,100.00
2022-10-07T12:15:39.147Z,100.00
2022-10-07T12:18:30.673Z,100.00
2022-10-07T12:21:06.128Z,100.00
2022-10-07T12:23:47.026Z,100.00
2022-10-07T12:26:55.348Z,100.00
2022-10-07T12:29:51.548Z,100.00
2022-10-07T12:32:44.507Z,99.91
2022-10-07T12:35:44.434Z,99.70
2022-10-07T12:38:23.619Z,99.43
2022-10-07T12:41:02.820Z,99.26
2022-10-07T12:43:44.641Z,99.29
2022-10-07T12:46:17.365Z,99.07
2022-10-07T12:48:51.199Z,99.12
2022-10-07T12:51:27.864Z,98.86
2022-10-07T12:54:02.174Z,99.05
2022-10-07T12:56:33.242Z,98.77
2022-10-07T12:59:27.454Z,98.68
2022-10-07T13:02:24.357Z,98.42
2022-10-07T13:05:16.109Z,98.25
2022-10-07T13:08:29.421Z,98.23
2022-10-07T13:11:28.768Z,98.06
2022-10-07T13:14:06.296Z,97.90
2022-10-07T13:16:41.429Z,97.82
2022-10-07T13:19:23.551Z,97.63
2022-10-07T13:22:01.508Z,97.56
2022-10-07T13:24:32.392Z,97.45
2022-10-07T13:27:03.216Z,97.42
2022-10-07T13:29:36.117Z,97.36
2022-10-07T13:32:07.953Z,97.26
2022-10-07T13:34:37.967Z,97.21
2022-10-07T13:37:32.054Z,97.04
2022-10-07T13:40:23.286Z,96.99
2022-10-07T13:42:59.483Z,96.94
2022-10-07T13:45:34.025Z,96.98
2022-10-07T13:48:03.988Z,96.73
2022-10-07T13:50:33.764Z,96.67
2022-10-07T13:53:03.708Z,96.89
2022-10-07T13:55:35.760Z,96.83
2022-10-07T13:58:07.494Z,96.86
2022-10-07T14:00:47.443Z,96.82
2022-10-07T14:03:17.705Z,96.66
2022-10-07T14:05:52.349Z,96.62
2022-10-07T14:08:24.587Z,96.59
2022-10-07T14:11:00.550Z,96.80
2022-10-07T14:13:31.156Z,96.65
2022-10-07T14:16:04.065Z,96.70
2022-10-07T14:18:33.903Z,96.55
2022-10-07T14:21:17.034Z,96.51
2022-10-07T14:23:49.058Z,96.47
2022-10-07T14:26:19.295Z,96.50
2022-10-07T14:28:49.238Z,96.25
2022-10-07T14:31:36.476Z,96.17
2022-10-07T14:34:28.014Z,96.14
2022-10-07T14:37:05.570Z,96.00
2022-10-07T14:39:37.819Z,96.01
2022-10-07T14:42:11.799Z,95.79
2022-10-07T14:44:44.131Z,95.85
2022-10-07T14:47:21.074Z,95.71
2022-10-07T14:49:52.894Z,95.68
2022-10-07T14:52:28.321Z,95.47
2022-10-07T14:55:00.093Z,95.43
2022-10-07T14:57:30.072Z,95.52
2022-10-07T14:59:59.791Z,95.38
2022-10-07T15:02:32.211Z,95.50
2022-10-07T15:05:02.190Z,95.31
2022-10-07T15:07:31.962Z,95.45
2022-10-07T15:10:01.735Z,95.38
2022-10-07T15:12:31.757Z,95.24
2022-10-07T15:15:01.532Z,95.39
2022-10-07T15:17:34.482Z,95.36
2022-10-07T15:20:04.391Z,95.20
2022-10-07T15:22:34.249Z,95.32
2022-10-07T15:25:04.130Z,95.32
2022-10-07T15:27:34.126Z,95.47
2022-10-07T15:30:03.929Z,95.45
2022-10-07T15:32:36.423Z,95.65
2022-10-07T15:35:06.403Z,95.65
2022-10-07T15:37:36.358Z,95.69
2022-10-07T15:40:07.681Z,95.71
2022-10-07T15:42:37.505Z,95.66
2022-10-07T15:45:08.147Z,95.56
2022-10-07T15:47:40.598Z,95.53
2022-10-07T15:50:11.466Z,95.46
2022-10-07T15:52:41.290Z,95.67
2022-10-07T15:55:11.737Z,95.83
2022-10-07T15:57:41.516Z,95.77
2022-10-07T16:00:12.469Z,95.79
2022-10-07T16:02:45.445Z,96.00
2022-10-07T16:05:15.529Z,95.97
2022-10-07T16:07:45.347Z,95.95
2022-10-07T16:10:15.201Z,96.11
2022-10-07T16:12:45.196Z,96.11
2022-10-07T16:15:15.982Z,96.18
2022-10-07T16:17:48.419Z,96.21
2022-10-07T16:20:18.702Z,96.20
2022-10-07T16:22:48.807Z,96.15
2022-10-07T16:25:18.879Z,96.35
2022-10-07T16:28:02.064Z,96.39
2022-10-07T16:30:51.282Z,96.28
2022-10-07T16:33:23.726Z,96.28
2022-10-07T16:35:53.442Z,96.52
2022-10-07T16:38:23.247Z,96.42
2022-10-07T16:40:56.618Z,96.69
2022-10-07T16:43:26.990Z,96.61
2022-10-07T16:45:56.783Z,96.62
2022-10-07T16:48:29.153Z,96.60
2022-10-07T16:50:59.301Z,96.72
2022-10-07T16:53:29.723Z,96.71
2022-10-07T16:55:59.513Z,96.83
2022-10-07T16:58:29.329Z,96.63
2022-10-07T17:01:03.821Z,96.78
2022-10-07T17:03:37.198Z,96.77
2022-10-07T17:06:08.074Z,96.74
2022-10-07T17:08:42.778Z,96.85
2022-10-07T17:11:28.781Z,96.80
2022-10-07T17:14:00.636Z,96.99
2022-10-07T17:16:32.749Z,96.94
2022-10-07T17:19:05.998Z,96.78
2022-10-07T17:21:36.246Z,96.90
2022-10-07T17:24:06.602Z,96.83
2022-10-07T17:26:36.329Z,96.96
2022-10-07T17:29:07.874Z,96.96
2022-10-07T17:31:39.519Z,97.01
2022-10-07T17:34:13.767Z,97.15
2022-10-07T17:36:44.026Z,97.11
2022-10-07T17:39:14.831Z,97.30
2022-10-07T17:41:44.538Z,97.38
2022-10-07T17:44:15.399Z,97.22
2022-10-07T17:46:45.480Z,97.38
2022-10-07T17:49:18.136Z,97.50
2022-10-07T17:51:47.942Z,97.44
2022-10-07T17:54:18.200Z,97.38
2022-10-07T17:56:48.086Z,97.36
2022-10-07T17:59:18.348Z,97.37
2022-10-07T18:01:48.621Z,97.23
2022-10-07T18:04:24.821Z,97.26
2022-10-07T18:06:55.148Z,97.30
2022-10-07T18:09:25.015Z,97.34
2022-10-07T18:12:07.157Z,97.27
2022-10-07T18:14:53.440Z,97.33
2022-10-07T18:17:24.689Z,97.32
2022-10-07T18:19:59.065Z,97.27
2022-10-07T18:22:28.830Z,97.31
2022-10-07T18:24:58.817Z,97.20
2022-10-07T18:27:28.748Z,97.19
2022-10-07T18:29:58.808Z,97.33
2022-10-07T18:32:28.515Z,97.38
2022-10-07T18:35:01.077Z,97.29
2022-10-07T18:37:31.055Z,97.40
2022-10-07T18:40:00.921Z,97.35
2022-10-07T18:42:30.866Z,97.38
2022-10-07T18:45:00.599Z,97.38
2022-10-07T18:47:30.337Z,97.42
2022-10-07T18:50:02.687Z,97.53
2022-10-07T18:52:32.400Z,97.64
2022-10-07T18:55:02.099Z,97.58
2022-10-07T18:57:31.867Z,97.64
2022-10-07T19:00:01.574Z,97.63
2022-10-07T19:02:31.290Z,97.68
2022-10-07T19:05:03.593Z,97.85
2022-10-07T19:07:33.320Z,97.84
2022-10-07T19:10:03.076Z,97.92
2022-10-07T19:12:45.191Z,97.95
2022-10-07T19:15:15.410Z,98.02
2022-10-07T19:17:46.460Z,98.03
2022-10-07T19:20:19.134Z,97.97
2022-10-07T19:22:48.857Z,98.12
2022-10-07T19:25:31.164Z,98.14
2022-10-07T19:28:00.971Z,98.11
2022-10-07T19:30:30.806Z,98.42
2022-10-07T19:33:00.582Z,98.25
2022-10-07T19:35:33.246Z,98.32
2022-10-07T19:38:04.377Z,98.47
2022-10-07T19:40:34.550Z,98.41
2022-10-07T19:43:05.773Z,98.46
2022-10-07T19:45:36.094Z,98.64
2022-10-07T19:48:11.691Z,98.54
2022-10-07T19:50:46.561Z,98.77
2022-10-07T19:53:16.887Z,98.66
2022-10-07T19:55:47.700Z,98.69
2022-10-07T19:58:17.434Z,98.86
2022-10-07T20:00:47.265Z,98.71
2022-10-07T20:03:17.047Z,98.79
2022-10-07T20:05:49.403Z,98.80
2022-10-07T20:08:19.217Z,98.85
2022-10-07T20:10:49.013Z,99.09
2022-10-07T20:13:18.745Z,99.09
2022-10-07T20:15:48.466Z,99.01
2022-10-07T20:18:18.856Z,99.16
2022-10-07T20:20:51.237Z,99.08
2022-10-07T20:23:21.036Z,99.14
2022-10-07T20:25:50.830Z,99.33
2022-10-07T20:28:20.585Z,99.27
2022-10-07T20:30:50.369Z,99.34
2022-10-07T20:33:20.072Z,99.43
2022-10-07T20:35:52.998Z,99.49
2022-10-07T20:38:22.750Z,99.51
2022-10-07T20:41:07.562Z,99.53
2022-10-07T20:43:37.397Z,99.46
2022-10-07T20:46:07.201Z,99.59
2022-10-07T20:48:36.951Z,99.53
2022-10-07T20:51:10.473Z,99.60
2022-10-07T20:53:40.200Z,99.66
2022-10-07T20:56:09.975Z,99.82
2022-10-07T20:58:39.696Z,99.82
2022-10-07T21:01:10.273Z,99.75
2022-10-07T21:03:41.079Z,99.84
2022-10-07T21:06:13.769Z,99.89
2022-10-07T21:08:43.483Z,99.92
2022-10-07T21:11:13.291Z,99.98
2022-10-07T21:13:43.279Z,100.00
2022-10-07T21:16:13.074Z,100.00
2022-10-07T21:18:43.140Z,100.00
2022-10-07T21:21:16.073Z,100.00
2022-10-07T21:23:45.791Z,100.00
2022-10-07T21:26:15.695Z,100.00
2022-10-07T21:28:48.461Z,100.00
2022-10-07T21:31:21.858Z,100.00
2022-10-07T21:33:53.639Z,100.00
2022-10-07T21:36:26.655Z,100.00
2022-10-07T21:39:01.172Z,100.00
2022-10-07T21:41:34.478Z,100.00
2022-10-07T21:44:06.347Z,100.00
2022-10-07T21:46:37.332Z,100.00
2022-10-07T21:49:07.918Z,100.00
2022-10-07T21:51:40.403Z,100.00
2022-10-07T21:54:10.444Z,100.00
2022-10-07T21:56:40.131Z,100.00
2022-10-07T21:59:09.879Z,100.00
2022-10-07T22:01:39.680Z,100.00
2022-10-07T22:04:09.862Z,100.00
2022-10-07T22:06:54.647Z,100.00
2022-10-07T22:09:24.394Z,100.00
2022-10-07T22:11:54.128Z,100.00
2022-10-07T22:14:24.013Z,100.00
2022-10-07T22:16:53.750Z,100.00
2022-10-07T22:19:23.523Z,100.00
2022-10-07T22:21:55.859Z,100.00
2022-10-07T22:24:26.432Z,100.00
2022-10-07T22:26:56.145Z,100.00
2022-10-07T22:29:26.066Z,100.00
2022-10-07T22:31:56.102Z,100.00
2022-10-07T22:34:39.209Z,100.00
2022-10-07T22:37:11.727Z,100.00
2022-10-07T22:39:41.503Z,100.00
2022-10-07T22:42:11.258Z,100.00
2022-10-07T22:44:40.956Z,100.00
2022-10-07T22:47:10.690Z,100.00
2022-10-07T22:49:41.505Z,100.00
2022-10-07T22:52:14.131Z,100.00
2022-10-07T22:54:43.864Z,100.00
2022-10-07T22:57:13.861Z,100.00
2022-10-07T22:59:43.654Z,100.00
2022-10-07T23:02:13.464Z,100.00
2022-10-07T23:04:43.222Z,100.00
2022-10-07T23:07:15.573Z,100.00
2022-10-07T23:09:45.399Z,100.00
2022-10-07T23:12:15.230Z,100.00
2022-10-07T23:14:45.074Z,100.00
2022-10-07T23:17:14.889Z,100.00
2022-10-07T23:19:44.915Z,100.00
2022-10-07T23:22:17.353Z,100.00
2022-10-07T23:24:47.102Z,100.00
2022-10-07T23:27:17.233Z,100.00
2022-10-07T23:29:46.999Z,100.00
2022-10-07T23:32:16.733Z,100.00
2022-10-07T23:34:46.483Z,100.00
2022-10-07T23:37:19.205Z,100.00
2022-10-07T23:39:49.368Z,100.00
2022-10-07T23:42:19.095Z,100.00
2022-10-07T23:44:48.830Z,100.00
2022-10-07T23:47:18.809Z,100.00
2022-10-07T23:49:48.557Z,100.00
2022-10-07T23:52:20.885Z,100.00
2022-10-07T23:54:50.639Z,100.00
2022-10-07T23:57:20.344Z,100.00
2022-10-07T23:59:50.067Z,100.00
